Time;durP1;ratioP1;P1;durP2;ratioP2;P2;SDS_P1;SDS_P2;PMS_P1;PMS_P2;Temp;Humidity;BMP_temperature;BMP_pressure;BME280_temperature;BME280_humidity;BME280_pressure;Samples;Min_cycle;Max_cycle;Signal;HPM_P1;HPM_P2
2024/03/27 00:01:11;;;;;;;6.72;2.45;;;9.50;89.90;;;;;;5059698;28;20067;-73
2024/03/27 00:03:37;;;;;;;4.30;2.28;;;9.40;90.20;;;;;;5058401;28;20035;-73
2024/03/27 00:06:06;;;;;;;3.42;2.33;;;9.40;90.10;;;;;;5058284;28;20051;-73
2024/03/27 00:08:32;;;;;;;4.10;2.20;;;9.40;90.30;;;;;;5056854;28;20028;-73
2024/03/27 00:10:58;;;;;;;6.47;2.17;;;9.40;90.20;;;;;;5058779;28;20074;-73
2024/03/27 00:13:24;;;;;;;6.30;2.17;;;9.40;90.20;;;;;;5059032;28;20024;-72
2024/03/27 00:15:52;;;;;;;4.07;2.38;;;9.40;90.20;;;;;;5057597;28;20036;-74
2024/03/27 00:18:18;;;;;;;4.10;2.25;;;9.40;90.20;;;;;;5045647;28;20226;-73
2024/03/27 00:20:44;;;;;;;8.45;2.47;;;9.30;90.30;;;;;;5058639;28;20043;-73
2024/03/27 00:23:10;;;;;;;4.07;2.60;;;9.30;90.30;;;;;;5059684;28;20495;-73
2024/03/27 00:25:37;;;;;;;6.35;2.38;;;9.30;90.20;;;;;;5060671;28;20039;-73
2024/03/27 00:28:03;;;;;;;7.40;2.22;;;9.30;90.20;;;;;;5058295;28;20047;-73
2024/03/27 00:30:29;;;;;;;2.30;1.98;;;9.30;90.20;;;;;;5058933;28;20054;-73
2024/03/27 00:32:55;;;;;;;5.72;2.35;;;9.20;90.40;;;;;;5038892;28;20033;-73
2024/03/27 00:35:21;;;;;;;5.38;2.15;;;9.20;90.40;;;;;;5057975;28;20513;-72
2024/03/27 00:37:47;;;;;;;4.18;2.42;;;9.20;90.20;;;;;;5059575;28;20104;-72
2024/03/27 00:40:16;;;;;;;4.28;2.08;;;9.20;90.40;;;;;;5038283;28;20075;-73
2024/03/27 00:42:44;;;;;;;4.35;2.03;;;9.10;90.40;;;;;;5043405;28;20383;-73
2024/03/27 00:45:10;;;;;;;3.95;2.10;;;9.10;90.50;;;;;;5060209;28;20043;-72
2024/03/27 00:47:36;;;;;;;3.80;2.20;;;9.10;90.40;;;;;;5059206;28;20037;-72
2024/03/27 00:50:02;;;;;;;5.95;2.20;;;9.10;90.40;;;;;;5059078;28;20028;-72
2024/03/27 00:52:28;;;;;;;5.85;2.60;;;9.10;90.40;;;;;;5058952;28;20028;-73
2024/03/27 00:54:54;;;;;;;4.40;2.38;;;9.00;90.50;;;;;;5050839;28;20039;-74
2024/03/27 00:57:20;;;;;;;3.30;2.08;;;8.90;90.60;;;;;;5086247;28;20040;-73
2024/03/27 00:59:46;;;;;;;5.25;2.30;;;8.90;90.60;;;;;;5066869;28;20086;-73
2024/03/27 01:02:12;;;;;;;6.32;2.22;;;8.90;90.70;;;;;;5058840;28;20032;-73
2024/03/27 01:04:37;;;;;;;4.50;2.55;;;8.90;90.80;;;;;;5061355;28;20025;-73
2024/03/27 01:07:03;;;;;;;4.47;2.17;;;8.80;90.80;;;;;;5057380;28;21471;-73
2024/03/27 01:09:29;;;;;;;4.20;2.35;;;8.80;90.90;;;;;;5038279;28;20616;-73
2024/03/27 01:11:55;;;;;;;5.30;2.40;;;8.80;90.80;;;;;;5057814;28;20052;-72
2024/03/27 01:14:21;;;;;;;3.55;2.03;;;8.80;90.80;;;;;;5056430;28;20024;-72
2024/03/27 01:16:46;;;;;;;4.22;1.95;;;8.70;91.00;;;;;;5059452;28;20036;-72
2024/03/27 01:19:12;;;;;;;5.88;2.00;;;8.70;91.00;;;;;;5059683;28;20419;-72
2024/03/27 01:21:38;;;;;;;4.78;2.55;;;8.70;91.10;;;;;;5060301;28;20851;-72
2024/03/27 01:24:04;;;;;;;4.93;2.20;;;8.60;91.10;;;;;;5060387;28;20404;-73
2024/03/27 01:26:30;;;;;;;4.22;2.30;;;8.70;91.10;;;;;;5061030;28;20147;-73
2024/03/27 01:28:56;;;;;;;4.57;2.55;;;8.60;91.20;;;;;;5060956;28;20040;-72
2024/03/27 01:31:22;;;;;;;5.82;2.53;;;8.50;91.30;;;;;;5040469;28;20039;-69
2024/03/27 01:33:48;;;;;;;3.60;2.20;;;8.60;91.30;;;;;;5060828;28;20056;-70
2024/03/27 01:36:13;;;;;;;4.30;2.45;;;8.50;91.40;;;;;;5060624;28;20029;-70
2024/03/27 01:38:39;;;;;;;3.85;2.33;;;8.50;91.40;;;;;;5060462;28;20036;-70
2024/03/27 01:41:05;;;;;;;5.15;2.55;;;8.50;91.40;;;;;;5060140;28;20039;-71
2024/03/27 01:43:31;;;;;;;5.43;2.55;;;8.40;91.50;;;;;;5060416;28;20563;-70
2024/03/27 01:45:58;;;;;;;4.80;2.38;;;8.40;91.60;;;;;;5058673;28;20151;-70
2024/03/27 01:48:25;;;;;;;6.20;2.60;;;8.30;91.80;;;;;;5039804;28;20066;-69
2024/03/27 01:50:52;;;;;;;6.18;2.90;;;8.30;91.60;;;;;;5060930;28;20094;-69
2024/03/27 01:53:19;;;;;;;6.00;2.53;;;8.30;91.70;;;;;;5042084;28;20056;-69
2024/03/27 01:55:46;;;;;;;5.82;2.10;;;8.20;91.70;;;;;;5060065;28;20028;-70
2024/03/27 01:58:12;;;;;;;4.32;2.58;;;8.20;91.80;;;;;;5059127;28;20032;-70
2024/03/27 02:00:38;;;;;;;4.57;2.20;;;8.10;91.80;;;;;;5060538;28;20028;-71
2024/03/27 02:03:05;;;;;;;6.03;2.72;;;8.20;91.90;;;;;;5061067;28;20058;-70
2024/03/27 02:05:32;;;;;;;6.70;2.65;;;8.10;91.90;;;;;;5063548;28;20028;-70
2024/03/27 02:07:57;;;;;;;4.03;2.40;;;8.10;91.80;;;;;;5062991;28;20128;-71
2024/03/27 02:10:23;;;;;;;6.80;2.83;;;8.20;91.80;;;;;;5064107;28;20073;-70
2024/03/27 02:12:49;;;;;;;5.30;2.40;;;8.20;91.80;;;;;;5043085;28;20028;-70
2024/03/27 02:15:15;;;;;;;4.75;2.17;;;8.20;91.80;;;;;;5063541;28;20048;-70
2024/03/27 02:17:41;;;;;;;5.32;2.45;;;8.20;91.80;;;;;;5063743;28;20639;-72
2024/03/27 02:20:07;;;;;;;5.65;2.40;;;8.20;91.80;;;;;;5063771;28;20494;-70
2024/03/27 02:22:34;;;;;;;5.22;2.65;;;8.20;91.80;;;;;;5060255;28;20032;-71
2024/03/27 02:25:18;;;;;;;4.53;2.40;;;8.10;91.90;;;;;;5062611;28;20033;-71
2024/03/27 02:27:44;;;;;;;5.30;2.50;;;8.10;92.10;;;;;;5059053;28;20043;-71
2024/03/27 02:30:10;;;;;;;5.22;2.63;;;8.10;92.10;;;;;;5061024;28;20032;-71
2024/03/27 02:32:36;;;;;;;6.93;2.67;;;8.00;92.30;;;;;;5063474;28;20469;-71
2024/03/27 02:35:02;;;;;;;5.93;2.58;;;8.00;92.20;;;;;;5046830;28;20020;-71
2024/03/27 02:37:27;;;;;;;4.40;2.05;;;8.00;92.30;;;;;;5062256;28;20035;-71
2024/03/27 02:39:53;;;;;;;4.53;2.67;;;8.00;92.40;;;;;;5062839;28;20033;-71
2024/03/27 02:42:19;;;;;;;6.45;2.08;;;8.00;92.60;;;;;;5059871;28;20033;-71
2024/03/27 02:44:45;;;;;;;7.82;2.42;;;8.00;92.50;;;;;;5056984;28;20032;-70
2024/03/27 02:47:10;;;;;;;3.70;2.20;;;7.90;92.70;;;;;;5060971;28;20034;-70
2024/03/27 02:49:37;;;;;;;6.35;2.58;;;7.90;92.70;;;;;;5063345;28;20036;-70
2024/03/27 02:52:03;;;;;;;4.35;2.28;;;7.90;92.70;;;;;;5060511;28;20032;-71
2024/03/27 02:54:28;;;;;;;4.72;2.20;;;7.90;92.70;;;;;;5060929;28;20777;-71
2024/03/27 02:56:55;;;;;;;3.00;2.03;;;7.90;92.70;;;;;;5062304;28;20042;-71
2024/03/27 02:59:20;;;;;;;5.97;2.42;;;7.80;92.80;;;;;;5057694;28;20119;-71
2024/03/27 03:01:46;;;;;;;5.55;2.05;;;7.80;92.70;;;;;;5061465;28;20078;-71
2024/03/27 03:04:12;;;;;;;4.60;2.40;;;7.80;92.90;;;;;;5063202;28;20396;-71
2024/03/27 03:06:39;;;;;;;7.97;2.85;;;7.80;92.80;;;;;;5062859;28;20834;-71
2024/03/27 03:09:07;;;;;;;5.88;2.80;;;7.90;92.70;;;;;;5060426;28;20128;-71
2024/03/27 03:11:33;;;;;;;4.93;2.40;;;7.90;92.70;;;;;;5042665;28;20034;-70
2024/03/27 03:13:59;;;;;;;4.50;2.50;;;7.90;92.60;;;;;;5061962;28;20033;-71
2024/03/27 03:16:25;;;;;;;8.07;2.40;;;7.90;92.50;;;;;;5062349;28;20285;-71
2024/03/27 03:18:51;;;;;;;7.43;2.90;;;7.90;92.60;;;;;;5058550;28;20036;-71
2024/03/27 03:21:17;;;;;;;4.60;2.65;;;7.90;92.80;;;;;;5058415;28;20032;-70
2024/03/27 03:23:43;;;;;;;5.32;2.35;;;7.80;92.70;;;;;;5062257;28;20472;-70
2024/03/27 03:26:09;;;;;;;5.00;2.45;;;7.80;92.60;;;;;;5061244;28;20032;-71
2024/03/27 03:28:35;;;;;;;4.35;2.30;;;7.80;92.70;;;;;;5062291;28;20028;-70
2024/03/27 03:31:04;;;;;;;3.25;2.35;;;7.80;92.70;;;;;;5062066;28;20032;-71
2024/03/27 03:33:30;;;;;;;6.85;2.58;;;7.90;92.60;;;;;;5062036;28;20143;-71
2024/03/27 03:36:00;;;;;;;10.85;3.80;;;8.00;92.60;;;;;;5054324;28;20218;-71
2024/03/27 03:38:28;;;;;;;6.60;2.35;;;7.90;92.70;;;;;;5062572;28;20127;-71
2024/03/27 03:41:01;;;;;;;6.05;3.15;;;7.90;92.50;;;;;;5041122;28;20036;-71
2024/03/27 03:43:27;;;;;;;4.80;2.72;;;7.80;92.80;;;;;;5064236;28;20400;-71
2024/03/27 03:45:53;;;;;;;5.50;2.40;;;7.70;92.80;;;;;;5059316;28;20033;-70
2024/03/27 03:48:19;;;;;;;6.85;2.92;;;7.70;93.00;;;;;;5061163;28;20028;-70
2024/03/27 03:50:44;;;;;;;6.20;3.40;;;7.70;93.00;;;;;;5060192;28;20028;-71
2024/03/27 03:53:10;;;;;;;4.63;2.20;;;7.70;93.00;;;;;;5060562;28;20032;-71
2024/03/27 03:55:36;;;;;;;4.65;2.50;;;7.70;93.10;;;;;;5060383;28;20472;-71
2024/03/27 03:58:02;;;;;;;6.68;2.50;;;7.70;93.20;;;;;;5062017;28;20032;-71
2024/03/27 04:00:28;;;;;;;7.63;2.58;;;7.70;93.10;;;;;;5061936;28;20034;-71
2024/03/27 04:02:53;;;;;;;6.22;2.35;;;7.70;93.30;;;;;;5061048;28;20135;-71
2024/03/27 04:05:19;;;;;;;5.75;2.42;;;7.70;93.30;;;;;;5057864;28;20041;-73
2024/03/27 04:07:48;;;;;;;5.45;2.78;;;7.70;93.40;;;;;;5060910;28;20040;-73
2024/03/27 04:10:14;;;;;;;5.85;2.42;;;7.70;93.20;;;;;;5039390;28;20062;-73
2024/03/27 04:12:40;;;;;;;6.07;2.53;;;7.60;93.30;;;;;;5055548;28;20044;-73
2024/03/27 04:15:06;;;;;;;5.05;2.60;;;7.50;93.40;;;;;;5061385;28;20029;-73
2024/03/27 04:17:32;;;;;;;6.28;2.90;;;7.60;93.60;;;;;;5058299;28;20517;-73
2024/03/27 04:20:00;;;;;;;8.02;2.38;;;7.60;93.30;;;;;;5059510;28;20040;-73
2024/03/27 04:22:29;;;;;;;3.65;2.10;;;7.70;93.40;;;;;;5044764;28;20442;-73
2024/03/27 04:24:55;;;;;;;4.93;2.50;;;7.70;93.30;;;;;;5059805;28;20037;-74
2024/03/27 04:27:21;;;;;;;5.35;2.25;;;7.70;93.20;;;;;;5061732;28;20047;-73
2024/03/27 04:29:46;;;;;;;5.13;2.85;;;7.80;93.00;;;;;;5061191;28;20106;-74
2024/03/27 04:32:12;;;;;;;5.40;2.70;;;7.80;93.00;;;;;;5043080;28;20124;-74
2024/03/27 04:34:38;;;;;;;5.20;2.50;;;7.80;93.00;;;;;;5040646;28;20032;-73
2024/03/27 04:37:05;;;;;;;4.50;2.42;;;7.80;93.00;;;;;;5055214;28;20024;-73
2024/03/27 04:39:30;;;;;;;7.18;2.67;;;7.70;92.90;;;;;;5043198;28;20024;-74
2024/03/27 04:41:56;;;;;;;6.35;3.13;;;7.80;92.80;;;;;;5056834;28;20396;-74
2024/03/27 04:44:22;;;;;;;4.18;2.33;;;7.80;92.80;;;;;;5061419;28;20108;-74
2024/03/27 04:46:48;;;;;;;5.20;3.05;;;7.80;92.80;;;;;;5058797;28;20043;-73
2024/03/27 04:49:13;;;;;;;5.50;2.80;;;7.80;92.90;;;;;;5060752;28;20081;-73
2024/03/27 04:51:39;;;;;;;5.82;2.47;;;7.60;93.10;;;;;;5059683;28;20032;-73
2024/03/27 04:54:05;;;;;;;4.88;2.55;;;7.70;93.20;;;;;;5057872;28;20051;-74
2024/03/27 04:56:31;;;;;;;7.82;2.60;;;7.70;93.30;;;;;;5045295;28;20491;-73
2024/03/27 04:58:58;;;;;;;5.13;2.40;;;7.70;93.20;;;;;;5053399;28;20441;-73
2024/03/27 05:01:23;;;;;;;4.47;2.30;;;7.70;93.40;;;;;;5036740;28;20576;-73
2024/03/27 05:03:49;;;;;;;4.35;2.53;;;7.70;93.40;;;;;;5056491;28;20032;-73
2024/03/27 05:06:15;;;;;;;7.93;2.50;;;7.60;93.40;;;;;;5060928;28;20143;-74
2024/03/27 05:08:41;;;;;;;4.72;2.45;;;7.50;93.70;;;;;;5060940;28;20034;-73
2024/03/27 05:11:06;;;;;;;5.93;2.53;;;7.40;94.00;;;;;;5060806;28;20044;-73
2024/03/27 05:13:32;;;;;;;9.15;3.28;;;7.40;94.00;;;;;;5048948;28;20698;-73
2024/03/27 05:15:58;;;;;;;3.67;2.25;;;7.50;94.00;;;;;;5060384;28;20360;-74
2024/03/27 05:18:24;;;;;;;6.07;2.35;;;7.50;94.00;;;;;;5057496;28;20025;-74
2024/03/27 05:20:52;;;;;;;6.10;2.97;;;7.50;94.10;;;;;;5060256;28;20032;-73
2024/03/27 05:23:18;;;;;;;3.67;2.08;;;7.60;94.10;;;;;;5060341;28;20077;-73
2024/03/27 05:25:44;;;;;;;5.03;2.45;;;7.70;94.00;;;;;;5057415;28;20029;-73
2024/03/27 05:28:09;;;;;;;3.38;2.17;;;7.70;93.80;;;;;;5042140;28;20037;-74
2024/03/27 05:30:35;;;;;;;6.43;2.80;;;7.70;93.80;;;;;;5057069;28;20025;-74
2024/03/27 05:33:01;;;;;;;3.80;2.20;;;7.70;93.70;;;;;;5059231;28;20047;-73
2024/03/27 05:35:27;;;;;;;8.73;2.50;;;7.80;93.90;;;;;;5060411;28;20497;-73
2024/03/27 05:37:54;;;;;;;5.70;2.50;;;7.80;93.90;;;;;;5060538;28;20032;-73
2024/03/27 05:40:20;;;;;;;4.65;2.50;;;7.80;93.80;;;;;;5062256;28;20551;-73
2024/03/27 05:42:46;;;;;;;7.60;2.95;;;7.90;93.80;;;;;;5060987;28;20073;-73
2024/03/27 05:45:11;;;;;;;5.00;1.98;;;7.90;93.80;;;;;;5062605;28;20460;-73
2024/03/27 05:47:37;;;;;;;5.95;2.30;;;7.90;93.60;;;;;;5061727;28;20562;-73
2024/03/27 05:50:05;;;;;;;6.18;2.72;;;7.90;93.60;;;;;;5057539;28;20828;-73
2024/03/27 05:52:31;;;;;;;7.25;2.22;;;8.00;93.60;;;;;;5047936;28;20098;-73
2024/03/27 05:54:57;;;;;;;5.13;2.10;;;8.00;93.30;;;;;;5062723;28;20036;-73
2024/03/27 05:57:23;;;;;;;5.88;2.03;;;8.10;93.50;;;;;;5064153;28;20028;-73
2024/03/27 05:59:48;;;;;;;8.93;2.60;;;8.00;93.40;;;;;;5059465;28;20034;-73
2024/03/27 06:02:14;;;;;;;7.65;2.30;;;8.00;93.50;;;;;;5046908;28;20024;-74
2024/03/27 06:04:40;;;;;;;4.95;2.65;;;8.10;93.60;;;;;;5063479;28;20047;-73
2024/03/27 06:07:06;;;;;;;7.00;2.30;;;8.20;93.40;;;;;;5058062;28;20029;-73
2024/03/27 06:09:32;;;;;;;5.15;2.55;;;8.20;93.30;;;;;;5061081;28;20033;-72
2024/03/27 06:11:59;;;;;;;7.00;2.40;;;8.30;93.30;;;;;;5062577;28;20029;-72
2024/03/27 06:14:25;;;;;;;5.10;2.53;;;8.30;93.50;;;;;;5062366;28;20394;-73
2024/03/27 06:16:51;;;;;;;5.80;2.72;;;8.40;93.30;;;;;;5063921;28;20036;-73
2024/03/27 06:19:17;;;;;;;4.53;2.10;;;8.50;93.20;;;;;;5061822;28;20033;-73
2024/03/27 06:21:43;;;;;;;6.18;2.33;;;8.50;93.10;;;;;;5042757;28;20025;-73
2024/03/27 06:24:08;;;;;;;5.10;2.40;;;8.60;93.00;;;;;;5058914;28;20068;-74
2024/03/27 06:26:34;;;;;;;3.72;2.38;;;8.60;93.10;;;;;;5061431;28;20032;-73
2024/03/27 06:29:00;;;;;;;5.07;2.58;;;8.80;92.90;;;;;;5061223;28;20044;-74
2024/03/27 06:31:26;;;;;;;7.50;2.40;;;8.80;92.70;;;;;;5062640;28;20032;-73
2024/03/27 06:33:52;;;;;;;7.20;2.67;;;8.90;93.10;;;;;;5059575;28;20158;-73
2024/03/27 06:36:18;;;;;;;4.25;2.40;;;8.90;92.40;;;;;;5058981;28;20563;-73
2024/03/27 06:38:43;;;;;;;5.90;2.10;;;9.00;92.50;;;;;;5063474;28;20059;-73
2024/03/27 06:41:09;;;;;;;5.25;2.25;;;9.10;92.80;;;;;;5059861;28;20377;-73
2024/03/27 06:43:35;;;;;;;5.72;2.50;;;9.00;92.10;;;;;;5061296;28;20112;-72
2024/03/27 06:46:02;;;;;;;5.25;2.30;;;9.10;92.50;;;;;;5045382;28;20031;-69
2024/03/27 06:48:33;;;;;;;5.93;2.30;;;9.20;92.40;;;;;;5061562;28;20032;-72
2024/03/27 06:50:58;;;;;;;4.10;2.13;;;9.40;92.10;;;;;;5058934;28;20062;-73
2024/03/27 06:53:24;;;;;;;4.97;2.40;;;9.50;91.90;;;;;;5057384;28;20025;-73
2024/03/27 06:55:50;;;;;;;8.77;2.50;;;9.60;92.10;;;;;;5039365;28;20392;-73
2024/03/27 06:58:16;;;;;;;3.63;2.10;;;9.70;91.80;;;;;;5062421;28;20482;-72
2024/03/27 07:00:42;;;;;;;5.05;2.20;;;9.80;91.60;;;;;;5058292;28;20071;-73
2024/03/27 07:03:08;;;;;;;3.45;1.90;;;10.00;91.20;;;;;;5040596;28;20723;-72
2024/03/27 07:05:35;;;;;;;4.15;1.88;;;10.10;91.40;;;;;;5060882;28;20160;-73
2024/03/27 07:08:03;;;;;;;8.45;2.42;;;10.30;91.10;;;;;;5058748;28;20712;-73
2024/03/27 07:10:29;;;;;;;5.00;2.10;;;10.60;90.40;;;;;;5063342;28;20031;-73
2024/03/27 07:12:54;;;;;;;6.30;2.53;;;10.80;90.20;;;;;;5061402;28;20024;-71
2024/03/27 07:15:20;;;;;;;4.53;2.70;;;11.10;89.00;;;;;;5061178;28;20726;-72
2024/03/27 07:17:50;;;;;;;3.58;2.15;;;11.20;88.60;;;;;;5062848;28;20052;-72
2024/03/27 07:20:15;;;;;;;3.60;2.15;;;11.40;87.20;;;;;;5062241;28;20085;-71
2024/03/27 07:22:41;;;;;;;6.32;2.00;;;11.50;87.30;;;;;;5059397;28;20032;-73
2024/03/27 07:25:09;;;;;;;4.43;1.80;;;11.70;87.30;;;;;;5060528;28;20032;-73
2024/03/27 07:27:36;;;;;;;3.95;2.28;;;11.90;86.90;;;;;;5060982;28;20454;-70
2024/03/27 07:30:02;;;;;;;4.80;1.90;;;12.10;86.30;;;;;;5061418;28;20040;-70
2024/03/27 07:32:28;;;;;;;6.80;2.33;;;12.20;85.20;;;;;;5062948;28;20053;-71
2024/03/27 07:34:54;;;;;;;3.53;1.92;;;12.50;85.80;;;;;;5061944;28;20565;-71
2024/03/27 07:37:20;;;;;;;6.05;2.10;;;12.70;84.40;;;;;;5060327;28;20032;-73
2024/03/27 07:39:45;;;;;;;5.43;2.08;;;12.90;83.40;;;;;;5060685;28;20025;-72
2024/03/27 07:42:11;;;;;;;4.03;2.25;;;13.10;83.20;;;;;;5060969;28;20029;-73
2024/03/27 07:44:37;;;;;;;4.50;2.00;;;13.30;83.40;;;;;;5063017;28;20573;-71
2024/03/27 07:47:03;;;;;;;4.55;2.33;;;13.60;83.20;;;;;;5059204;28;20062;-73
2024/03/27 07:49:28;;;;;;;4.82;1.80;;;14.00;81.60;;;;;;5060175;28;20085;-72
2024/03/27 07:51:54;;;;;;;3.80;2.05;;;14.30;78.90;;;;;;5060530;28;20035;-71
2024/03/27 07:54:20;;;;;;;4.85;1.90;;;14.60;78.00;;;;;;5060235;28;20128;-71
2024/03/27 07:56:45;;;;;;;2.22;1.80;;;14.70;77.80;;;;;;5061177;28;20024;-70
2024/03/27 07:59:11;;;;;;;6.28;2.80;;;14.70;77.00;;;;;;5060120;28;20028;-70
2024/03/27 08:01:37;;;;;;;5.13;1.92;;;14.70;77.20;;;;;;5042175;28;20024;-70
2024/03/27 08:04:03;;;;;;;3.40;2.20;;;14.70;76.30;;;;;;5060944;28;20024;-71
2024/03/27 08:06:29;;;;;;;2.63;1.52;;;14.70;76.60;;;;;;5044794;28;20036;-71
2024/03/27 08:08:55;;;;;;;5.40;1.80;;;14.60;76.40;;;;;;5061608;28;20036;-69
2024/03/27 08:11:22;;;;;;;5.30;1.90;;;14.60;76.80;;;;;;5061263;28;20047;-70
2024/03/27 08:13:48;;;;;;;3.00;1.83;;;14.60;77.20;;;;;;5061387;28;20464;-70
2024/03/27 08:16:14;;;;;;;3.72;2.08;;;14.90;77.90;;;;;;5062028;28;20029;-71
2024/03/27 08:18:45;;;;;;;3.35;1.48;;;15.20;75.50;;;;;;5043726;28;20689;-70
2024/03/27 08:21:11;;;;;;;3.85;1.70;;;15.30;75.00;;;;;;5061174;28;20033;-71
2024/03/27 08:23:37;;;;;;;4.05;1.90;;;15.50;74.60;;;;;;5051968;28;20032;-71
2024/03/27 08:26:03;;;;;;;3.42;1.88;;;15.70;73.60;;;;;;5054532;28;20028;-70
2024/03/27 08:28:29;;;;;;;5.43;1.92;;;15.70;73.80;;;;;;5042692;28;20837;-71
2024/03/27 08:30:55;;;;;;;2.35;1.55;;;15.70;74.40;;;;;;5058627;28;20034;-71
2024/03/27 08:33:22;;;;;;;2.92;1.40;;;15.40;72.60;;;;;;5059277;28;20489;-71
2024/03/27 08:35:48;;;;;;;2.53;1.67;;;15.10;72.20;;;;;;5058748;28;20036;-71
2024/03/27 08:38:14;;;;;;;3.83;2.10;;;15.10;74.00;;;;;;5059220;28;20031;-71
2024/03/27 08:40:40;;;;;;;3.40;1.65;;;15.20;73.20;;;;;;5058590;28;20028;-71
2024/03/27 08:43:07;;;;;;;5.55;2.30;;;15.30;72.60;;;;;;5060688;28;20028;-72
2024/03/27 08:45:33;;;;;;;3.72;2.08;;;15.30;73.80;;;;;;5062872;28;20558;-71
2024/03/27 08:47:59;;;;;;;6.93;1.75;;;15.20;72.60;;;;;;5055253;28;20032;-67
2024/03/27 08:50:25;;;;;;;4.60;2.15;;;15.10;74.70;;;;;;5060832;28;20399;-71
2024/03/27 08:52:51;;;;;;;3.28;1.73;;;15.60;74.90;;;;;;5058864;28;20029;-72
2024/03/27 08:55:17;;;;;;;2.75;1.88;;;16.00;72.50;;;;;;5058447;28;20025;-71
2024/03/27 08:57:43;;;;;;;2.50;1.52;;;16.60;72.90;;;;;;5056808;28;20025;-72
2024/03/27 09:00:10;;;;;;;3.50;2.03;;;16.80;69.90;;;;;;5059325;28;20083;-69
2024/03/27 09:02:36;;;;;;;3.83;1.85;;;17.10;69.90;;;;;;5060870;28;20111;-69
2024/03/27 09:05:02;;;;;;;4.30;1.77;;;17.60;68.70;;;;;;5060497;28;20025;-69
2024/03/27 09:07:28;;;;;;;3.53;1.98;;;17.90;67.70;;;;;;5041353;28;20033;-68
2024/03/27 09:09:53;;;;;;;2.45;1.65;;;18.10;66.70;;;;;;5058820;28;20025;-72
2024/03/27 09:12:19;;;;;;;3.35;2.13;;;18.50;66.30;;;;;;5058646;28;20676;-72
2024/03/27 09:14:45;;;;;;;6.75;3.30;;;18.60;63.60;;;;;;5058326;28;20025;-72
2024/03/27 09:17:11;;;;;;;2.92;1.85;;;18.80;65.50;;;;;;5058506;28;20035;-72
2024/03/27 09:19:37;;;;;;;4.47;1.75;;;19.00;65.20;;;;;;5059489;28;20041;-69
2024/03/27 09:22:03;;;;;;;5.63;1.80;;;19.30;64.30;;;;;;5059682;28;20033;-69
2024/03/27 09:24:30;;;;;;;5.47;1.70;;;19.30;60.70;;;;;;5052715;28;20391;-69
2024/03/27 09:26:56;;;;;;;2.63;1.67;;;19.50;62.50;;;;;;5025356;28;20040;-68
2024/03/27 09:29:22;;;;;;;2.97;1.50;;;19.30;62.10;;;;;;5056758;28;20453;-68
2024/03/27 09:31:48;;;;;;;4.15;1.75;;;19.10;63.20;;;;;;5056314;28;20103;-68
2024/03/27 09:34:15;;;;;;;3.38;1.85;;;19.20;65.80;;;;;;5059425;28;20743;-68
2024/03/27 09:36:41;;;;;;;4.07;1.75;;;19.30;61.90;;;;;;5057197;28;20437;-70
2024/03/27 09:39:07;;;;;;;4.13;1.52;;;19.20;62.40;;;;;;5058829;28;20035;-69
2024/03/27 09:41:33;;;;;;;4.05;2.00;;;19.00;61.30;;;;;;5056154;28;20032;-69
2024/03/27 09:44:03;;;;;;;4.82;1.60;;;18.70;62.70;;;;;;5060436;28;20024;-69
2024/03/27 09:46:30;;;;;;;4.10;1.33;;;18.50;63.50;;;;;;5060123;28;20842;-68
2024/03/27 09:48:57;;;;;;;2.83;1.63;;;18.30;64.30;;;;;;5037433;28;20032;-70
2024/03/27 09:51:25;;;;;;;7.63;1.55;;;18.10;63.80;;;;;;5058105;28;20169;-70
2024/03/27 09:53:51;;;;;;;3.80;1.48;;;18.10;64.70;;;;;;5060343;28;20029;-74
2024/03/27 09:56:17;;;;;;;3.50;1.67;;;18.20;65.00;;;;;;5060132;28;20025;-71
2024/03/27 09:58:44;;;;;;;2.03;1.40;;;18.40;65.40;;;;;;5057004;28;20063;-69
2024/03/27 10:01:10;;;;;;;5.07;1.58;;;18.80;62.20;;;;;;5057120;28;20113;-70
2024/03/27 10:03:36;;;;;;;4.40;2.10;;;19.00;62.50;;;;;;5057536;28;20109;-70
2024/03/27 10:06:03;;;;;;;3.35;1.35;;;18.90;63.40;;;;;;5036192;28;20174;-71
2024/03/27 10:08:29;;;;;;;1.40;1.30;;;19.00;64.20;;;;;;5056880;28;20036;-71
2024/03/27 10:10:56;;;;;;;4.80;1.52;;;19.40;62.50;;;;;;5059041;28;20029;-71
2024/03/27 10:13:23;;;;;;;2.60;1.58;;;20.10;61.70;;;;;;5044015;28;20586;-70
2024/03/27 10:15:51;;;;;;;2.28;1.40;;;20.60;60.00;;;;;;5053124;28;20024;-71
2024/03/27 10:18:17;;;;;;;2.25;1.40;;;20.90;57.10;;;;;;5057190;28;20240;-71
2024/03/27 10:20:43;;;;;;;2.65;1.60;;;21.50;58.10;;;;;;5059324;28;20028;-69
2024/03/27 10:23:10;;;;;;;5.25;1.65;;;22.00;56.10;;;;;;5057436;28;20025;-70
2024/03/27 10:25:40;;;;;;;3.45;1.40;;;21.90;55.10;;;;;;5060499;28;20037;-69
2024/03/27 10:28:08;;;;;;;2.53;1.42;;;21.60;56.50;;;;;;5044341;28;20484;-71
2024/03/27 10:30:34;;;;;;;3.05;1.25;;;21.30;57.00;;;;;;5041267;28;20871;-71
2024/03/27 10:33:00;;;;;;;3.42;1.50;;;21.20;56.30;;;;;;5060935;28;20037;-70
2024/03/27 10:35:30;;;;;;;3.47;1.33;;;21.10;56.40;;;;;;5062247;28;20028;-71
2024/03/27 10:37:58;;;;;;;1.63;1.13;;;21.20;58.00;;;;;;5061972;28;20043;-69
2024/03/27 10:40:24;;;;;;;1.40;1.10;;;21.50;56.20;;;;;;5051656;28;20626;-72
2024/03/27 10:43:03;;;;;;;4.72;1.40;;;21.90;55.90;;;;;;5061959;28;20039;-71
2024/03/27 10:45:38;;;;;;;2.22;1.23;;;22.20;57.10;;;;;;5059263;28;20027;-71
2024/03/27 10:48:05;;;;;;;2.30;1.38;;;22.10;56.80;;;;;;5061615;28;20033;-71
2024/03/27 10:50:33;;;;;;;3.20;1.23;;;21.80;53.60;;;;;;5060517;28;20078;-73
2024/03/27 10:53:00;;;;;;;2.78;1.50;;;21.70;54.50;;;;;;5057236;28;20077;-73
2024/03/27 10:55:27;;;;;;;4.03;1.40;;;21.60;55.30;;;;;;5060777;28;20033;-72
2024/03/27 10:57:55;;;;;;;1.52;1.17;;;21.90;54.00;;;;;;5059098;28;20119;-72
2024/03/27 11:00:21;;;;;;;3.97;1.33;;;22.30;54.00;;;;;;5044662;28;20024;-72
2024/03/27 11:02:50;;;;;;;2.35;1.35;;;22.40;53.20;;;;;;5060475;28;20032;-73
2024/03/27 11:05:16;;;;;;;2.97;1.25;;;22.50;52.80;;;;;;5058995;28;20027;-73
2024/03/27 11:07:42;;;;;;;5.88;1.30;;;22.20;54.40;;;;;;5062095;28;20044;-73
2024/03/27 11:10:19;;;;;;;1.75;1.08;;;22.30;55.00;;;;;;5056893;28;20035;-74
2024/03/27 11:12:48;;;;;;;2.28;1.13;;;22.40;53.20;;;;;;5058193;28;20051;-73
2024/03/27 11:15:14;;;;;;;1.83;1.27;;;22.20;52.80;;;;;;5060241;28;20107;-73
2024/03/27 11:17:55;;;;;;;2.83;1.30;;;21.80;53.70;;;;;;5060192;28;20033;-73
2024/03/27 11:20:27;;;;;;;2.65;1.40;;;21.10;55.00;;;;;;5062726;28;20033;-73
2024/03/27 11:22:54;;;;;;;1.70;1.20;;;20.70;55.60;;;;;;5055096;28;20497;-74
2024/03/27 11:25:23;;;;;;;3.70;1.40;;;20.30;58.10;;;;;;5060944;28;20097;-74
2024/03/27 11:27:49;;;;;;;2.10;0.95;;;20.00;57.30;;;;;;5060623;28;20036;-74
2024/03/27 11:30:21;;;;;;;3.20;1.02;;;19.70;60.00;;;;;;5063538;22;20477;-68
2024/03/27 11:32:49;;;;;;;1.40;1.27;;;19.70;61.40;;;;;;5030367;28;20033;-67
2024/03/27 11:35:17;;;;;;;1.80;1.45;;;19.60;60.20;;;;;;5028678;28;20056;-68
2024/03/27 11:37:43;;;;;;;3.78;1.58;;;19.50;59.00;;;;;;5031252;28;20036;-68
2024/03/27 11:40:10;;;;;;;2.67;1.02;;;19.50;60.10;;;;;;5022054;28;20030;-69
2024/03/27 11:42:36;;;;;;;3.83;2.38;;;19.40;60.10;;;;;;5026436;28;20057;-70
2024/03/27 11:45:09;;;;;;;3.90;1.20;;;19.40;61.50;;;;;;5026272;28;20022;-69
2024/03/27 11:47:35;;;;;;;2.47;1.23;;;19.30;60.60;;;;;;5024451;28;20211;-69
2024/03/27 11:50:01;;;;;;;2.53;1.38;;;19.30;61.00;;;;;;5025189;28;20799;-68
2024/03/27 11:52:28;;;;;;;3.78;1.40;;;19.20;62.00;;;;;;5025637;28;20053;-69
2024/03/27 11:54:54;;;;;;;2.40;1.25;;;19.20;62.60;;;;;;5022638;28;20028;-71
2024/03/27 11:57:21;;;;;;;4.05;1.40;;;19.30;62.20;;;;;;5023525;28;20127;-68
2024/03/27 11:59:46;;;;;;;2.60;1.45;;;19.10;61.30;;;;;;5025396;28;20090;-72
2024/03/27 12:02:12;;;;;;;4.70;1.60;;;19.10;62.10;;;;;;5028193;28;20036;-72
2024/03/27 12:04:39;;;;;;;2.40;1.70;;;19.10;63.30;;;;;;5020509;28;20036;-71
2024/03/27 12:07:05;;;;;;;1.48;1.20;;;19.10;63.90;;;;;;5024026;28;20029;-71
2024/03/27 12:09:38;;;;;;;2.47;1.55;;;18.90;62.10;;;;;;5028040;28;20033;-71
2024/03/27 12:12:05;;;;;;;3.83;1.55;;;18.80;63.50;;;;;;5029943;28;20480;-72
2024/03/27 12:14:33;;;;;;;1.60;1.33;;;18.80;63.30;;;;;;5023599;28;20064;-69
2024/03/27 12:17:12;;;;;;;2.33;1.45;;;18.80;63.10;;;;;;5025861;28;20052;-71
2024/03/27 12:19:38;;;;;;;2.25;1.45;;;18.70;62.30;;;;;;5025775;28;20029;-70
2024/03/27 12:22:05;;;;;;;5.28;1.60;;;18.70;62.10;;;;;;5022085;28;20833;-71
2024/03/27 12:24:31;;;;;;;3.97;1.58;;;18.90;63.40;;;;;;5024040;28;20052;-70
2024/03/27 12:27:00;;;;;;;3.00;1.42;;;19.00;64.00;;;;;;5027043;28;20476;-68
2024/03/27 12:29:30;;;;;;;4.53;1.73;;;19.20;63.30;;;;;;5023765;28;20044;-70
2024/03/27 12:31:55;;;;;;;1.98;1.38;;;19.30;62.10;;;;;;5022055;28;20597;-71
2024/03/27 12:34:21;;;;;;;4.07;1.73;;;19.30;62.10;;;;;;5025669;28;20030;-71
2024/03/27 12:36:47;;;;;;;2.05;1.00;;;19.30;62.50;;;;;;5026337;28;20022;-71
2024/03/27 12:39:14;;;;;;;2.47;1.13;;;19.20;60.40;;;;;;5022483;28;20481;-72
2024/03/27 12:41:40;;;;;;;3.20;1.40;;;19.30;62.40;;;;;;5024232;28;20033;-71
2024/03/27 12:44:06;;;;;;;2.88;1.30;;;19.30;61.60;;;;;;5026678;28;20213;-70
2024/03/27 12:46:31;;;;;;;2.35;1.58;;;19.10;60.90;;;;;;5021430;28;20040;-70
2024/03/27 12:48:57;;;;;;;3.55;1.50;;;19.10;62.30;;;;;;5024121;28;20397;-70